Time;durP1;ratioP1;P1;durP2;ratioP2;P2;SDS_P1;SDS_P2;PMS_P1;PMS_P2;Temp;Humidity;BMP_temperature;BMP_pressure;BME280_temperature;BME280_humidity;BME280_pressure;Samples;Min_cycle;Max_cycle;Signal;HPM_P1;HPM_P2
2021/08/30 00:00:36;;;;;;;7.20;5.05;;;;;;;13.33;100.00;100651.56;5022671;28;20136;-78
2021/08/30 00:03:03;;;;;;;6.38;4.65;;;;;;;13.34;100.00;100651.44;5007853;28;20076;-80
2021/08/30 00:05:31;;;;;;;5.13;4.32;;;;;;;13.35;100.00;100654.94;5040867;28;20106;-80
2021/08/30 00:07:59;;;;;;;7.90;5.18;;;;;;;13.40;100.00;100655.44;5044553;28;20041;-82
2021/08/30 00:10:26;;;;;;;5.45;4.70;;;;;;;13.44;100.00;100651.63;5023882;28;20076;-80
2021/08/30 00:12:54;;;;;;;6.35;4.95;;;;;;;13.53;100.00;100650.97;5044249;28;20369;-79
2021/08/30 00:15:21;;;;;;;6.10;5.07;;;;;;;13.49;100.00;100659.25;5023598;28;20088;-80
2021/08/30 00:17:51;;;;;;;5.60;4.38;;;;;;;13.60;100.00;100654.06;5040872;28;20052;-80
2021/08/30 00:20:20;;;;;;;5.65;5.05;;;;;;;13.67;100.00;100663.22;5007383;28;20144;-81
2021/08/30 00:22:48;;;;;;;6.45;5.30;;;;;;;13.65;100.00;100655.41;5030691;28;20063;-79
2021/08/30 00:25:15;;;;;;;7.70;5.60;;;;;;;13.56;100.00;100650.78;5026980;28;20069;-79
2021/08/30 00:27:42;;;;;;;5.25;4.55;;;;;;;13.77;100.00;100661.59;5030352;28;20449;-79
2021/08/30 00:30:10;;;;;;;5.43;4.25;;;;;;;13.67;100.00;100657.94;5026658;28;20185;-79
2021/08/30 00:32:37;;;;;;;9.88;5.15;;;;;;;13.67;100.00;100658.78;5014549;28;20045;-80
2021/08/30 00:35:05;;;;;;;5.80;4.50;;;;;;;13.71;100.00;100662.06;5045711;28;20076;-78
2021/08/30 00:37:33;;;;;;;6.63;5.03;;;;;;;13.78;100.00;100663.31;5031372;28;20049;-80
2021/08/30 00:40:01;;;;;;;6.95;5.38;;;;;;;13.78;100.00;100665.09;5046030;28;20056;-80
2021/08/30 00:42:28;;;;;;;5.22;4.50;;;;;;;13.70;100.00;100664.81;5046660;28;20345;-81
2021/08/30 00:44:56;;;;;;;7.30;5.00;;;;;;;13.73;100.00;100664.59;5044694;28;20072;-80
2021/08/30 00:47:23;;;;;;;6.38;4.93;;;;;;;13.77;100.00;100666.06;5000471;28;20143;-79
2021/08/30 00:49:54;;;;;;;6.00;4.40;;;;;;;13.79;100.00;100662.38;5026149;28;20208;-78
2021/08/30 00:52:21;;;;;;;6.55;4.80;;;;;;;13.85;100.00;100661.91;5026016;28;20242;-79
2021/08/30 00:54:49;;;;;;;5.25;4.07;;;;;;;13.73;100.00;100657.50;5013488;28;20072;-82
2021/08/30 00:57:17;;;;;;;6.30;4.25;;;;;;;13.72;100.00;100660.25;5013249;28;20150;-78
2021/08/30 00:59:44;;;;;;;6.30;4.55;;;;;;;13.78;100.00;100660.69;5025020;28;20127;-79
2021/08/30 01:02:12;;;;;;;4.82;3.97;;;;;;;13.78;100.00;100657.16;5031800;28;20127;-80
2021/08/30 01:04:41;;;;;;;4.55;4.15;;;;;;;13.68;100.00;100659.63;5027354;28;20272;-80
2021/08/30 01:07:17;;;;;;;4.15;3.53;;;;;;;13.66;100.00;100661.53;5015983;28;20060;-80
2021/08/30 01:09:53;;;;;;;5.70;3.97;;;;;;;13.63;100.00;100667.88;5042771;28;20600;-78
2021/08/30 01:12:44;;;;;;;4.75;3.92;;;;;;;13.78;100.00;100670.38;5030123;28;20520;-79
2021/08/30 01:15:13;;;;;;;4.97;4.47;;;;;;;13.70;100.00;100672.75;5027457;28;20596;-80
2021/08/30 01:17:41;;;;;;;5.70;5.10;;;;;;;13.74;100.00;100674.22;5033326;28;20044;-78
2021/08/30 01:20:24;;;;;;;6.07;4.70;;;;;;;13.71;100.00;100670.00;5018257;28;20138;-79
2021/08/30 01:22:53;;;;;;;5.43;4.90;;;;;;;13.66;100.00;100672.13;5027897;28;20128;-80
2021/08/30 01:25:21;;;;;;;7.80;5.35;;;;;;;13.70;100.00;100665.66;5034261;28;20048;-79
2021/08/30 01:27:50;;;;;;;5.50;4.95;;;;;;;13.63;100.00;100667.88;5046763;28;20671;-80
2021/08/30 01:30:19;;;;;;;7.53;5.03;;;;;;;13.79;100.00;100669.47;5009952;28;20107;-80
2021/08/30 01:32:49;;;;;;;5.15;4.65;;;;;;;13.66;100.00;100667.69;5029081;28;20072;-79
2021/08/30 01:35:19;;;;;;;6.03;5.43;;;;;;;13.67;100.00;100663.22;5037601;28;20092;-79
2021/08/30 01:37:48;;;;;;;5.55;4.30;;;;;;;13.64;100.00;100659.03;5030887;28;20049;-80
2021/08/30 01:40:17;;;;;;;5.30;4.57;;;;;;;13.62;100.00;100663.56;5026221;28;20406;-79
2021/08/30 01:42:46;;;;;;;5.47;4.93;;;;;;;13.55;100.00;100664.09;5032373;28;20055;-80
2021/08/30 01:45:17;;;;;;;5.97;4.90;;;;;;;13.61;100.00;100666.31;5026338;28;20083;-80
2021/08/30 01:47:44;;;;;;;8.40;5.40;;;;;;;13.54;100.00;100668.53;5029617;28;20447;-80
2021/08/30 01:50:17;;;;;;;5.32;4.40;;;;;;;13.64;100.00;100668.72;5026535;28;20128;-80
2021/08/30 01:52:45;;;;;;;5.07;4.63;;;;;;;13.65;100.00;100671.28;5013898;28;20049;-80
2021/08/30 01:55:27;;;;;;;5.43;4.93;;;;;;;13.84;100.00;100675.25;5026478;28;20119;-79
2021/08/30 02:00:42;;;;;;;7.05;4.60;;;;;;;13.75;100.00;100665.34;5020834;28;20053;-80
2021/08/30 02:03:19;;;;;;;6.03;5.13;;;;;;;13.78;100.00;100673.03;5011715;28;20737;-79
2021/08/30 02:05:59;;;;;;;5.78;5.22;;;;;;;13.73;100.00;100667.22;5030893;28;20504;-77
2021/08/30 02:08:28;;;;;;;6.30;4.88;;;;;;;13.75;100.00;100665.34;5013586;28;20049;-78
2021/08/30 02:11:00;;;;;;;4.95;4.45;;;;;;;13.78;100.00;100668.63;5028649;28;20143;-78
2021/08/30 02:13:29;;;;;;;5.82;4.63;;;;;;;13.67;100.00;100665.88;5029696;28;20480;-80
2021/08/30 02:15:58;;;;;;;5.28;4.78;;;;;;;13.67;100.00;100673.81;5028786;28;20427;-80
2021/08/30 02:18:37;;;;;;;7.53;4.72;;;;;;;13.73;100.00;100670.72;5031240;28;20084;-79
2021/08/30 02:21:22;;;;;;;6.00;4.55;;;;;;;13.65;100.00;100660.69;5026446;28;20160;-78
2021/08/30 02:24:07;;;;;;;5.30;4.80;;;;;;;13.65;100.00;100667.78;5009208;28;20252;-79
2021/08/30 02:26:51;;;;;;;7.50;5.05;;;;;;;13.72;100.00;100671.69;5043255;28;20127;-78
2021/08/30 02:29:23;;;;;;;5.53;4.30;;;;;;;13.56;100.00;100669.28;5026840;28;20232;-80
2021/08/30 02:31:55;;;;;;;6.20;4.50;;;;;;;13.50;100.00;100674.16;5029121;28;20132;-78
2021/08/30 02:34:24;;;;;;;6.25;4.80;;;;;;;13.54;100.00;100672.97;5025361;28;20067;-79
2021/08/30 02:36:53;;;;;;;6.43;4.38;;;;;;;13.51;100.00;100674.06;5012509;28;20052;-80
2021/08/30 02:39:21;;;;;;;8.18;4.78;;;;;;;13.39;100.00;100674.91;5025553;28;20555;-78
2021/08/30 02:41:49;;;;;;;5.72;5.00;;;;;;;13.32;100.00;100679.78;5028779;28;20659;-79
2021/08/30 02:44:17;;;;;;;6.57;4.70;;;;;;;13.17;100.00;100678.16;5026462;28;20465;-79
2021/08/30 02:46:45;;;;;;;5.20;4.55;;;;;;;13.18;100.00;100666.63;5033413;28;20421;-78
2021/08/30 02:49:13;;;;;;;6.75;5.80;;;;;;;13.06;100.00;100676.28;5006597;28;20049;-80
2021/08/30 02:51:41;;;;;;;9.48;5.95;;;;;;;12.92;100.00;100677.22;5029802;28;20049;-79
2021/08/30 02:54:09;;;;;;;7.25;5.35;;;;;;;12.95;100.00;100676.13;5024800;28;20140;-79
2021/08/30 02:56:38;;;;;;;6.13;5.22;;;;;;;12.86;100.00;100677.59;5018029;28;20427;-80
2021/08/30 02:59:05;;;;;;;8.13;6.07;;;;;;;12.97;100.00;100687.47;5010658;28;20076;-80
2021/08/30 03:01:32;;;;;;;6.50;5.88;;;;;;;12.91;100.00;100685.22;5013194;28;20308;-80
2021/08/30 03:04:02;;;;;;;9.00;6.32;;;;;;;12.90;100.00;100679.09;5025891;28;20557;-83
2021/08/30 03:06:29;;;;;;;9.50;7.05;;;;;;;12.90;100.00;100679.09;5034988;28;20059;-78
2021/08/30 03:08:56;;;;;;;8.13;6.40;;;;;;;13.38;100.00;100670.59;5043780;28;20076;-80
2021/08/30 03:11:26;;;;;;;6.70;6.07;;;;;;;13.46;100.00;100670.88;5012955;28;20472;-79
2021/08/30 03:13:56;;;;;;;6.97;6.28;;;;;;;13.43;100.00;100671.09;5025432;28;20055;-79
2021/08/30 03:16:25;;;;;;;11.07;7.15;;;;;;;13.29;100.00;100676.50;5016289;28;20386;-79
2021/08/30 03:18:53;;;;;;;10.27;7.05;;;;;;;13.17;100.00;100673.72;5030444;28;20049;-79
2021/08/30 03:21:26;;;;;;;9.80;7.35;;;;;;;13.13;100.00;100676.69;5008179;28;20049;-81
2021/08/30 03:23:55;;;;;;;11.02;7.10;;;;;;;13.21;100.00;100681.44;4992035;28;20047;-80
2021/08/30 03:26:24;;;;;;;8.90;6.40;;;;;;;13.21;100.00;100678.81;5027015;28;20040;-80
2021/08/30 03:28:51;;;;;;;12.25;7.82;;;;;;;13.26;100.00;100695.22;5028134;28;20048;-80
2021/08/30 03:31:20;;;;;;;10.43;7.05;;;;;;;13.45;100.00;100687.69;5026419;28;20053;-78
2021/08/30 03:33:49;;;;;;;8.88;7.93;;;;;;;13.76;100.00;100688.19;5029481;28;20086;-84
2021/08/30 03:36:16;;;;;;;8.02;7.03;;;;;;;13.71;100.00;100685.88;5043938;28;20056;-79
2021/08/30 03:38:44;;;;;;;7.78;6.72;;;;;;;13.71;100.00;100688.50;5026842;28;20080;-81
2021/08/30 03:41:12;;;;;;;9.30;7.57;;;;;;;13.70;100.00;100684.19;5042173;28;20100;-79
2021/08/30 03:43:41;;;;;;;9.95;7.57;;;;;;;13.83;100.00;100686.81;5026957;28;20156;-78
2021/08/30 03:46:10;;;;;;;8.50;7.60;;;;;;;13.78;100.00;100684.50;5025832;28;20127;-79
2021/08/30 03:48:37;;;;;;;9.32;7.45;;;;;;;13.70;100.00;100684.19;5005997;28;20133;-80
2021/08/30 03:51:05;;;;;;;7.97;7.00;;;;;;;13.54;100.00;100683.56;5026263;28;20059;-81
2021/08/30 03:53:35;;;;;;;10.23;8.00;;;;;;;13.52;100.00;100675.75;5031677;28;20049;-80
2021/08/30 03:56:03;;;;;;;9.23;7.18;;;;;;;13.46;100.00;100681.44;5024280;28;20069;-80
2021/08/30 03:58:31;;;;;;;9.68;7.72;;;;;;;13.49;100.00;100685.69;5001241;28;20069;-79
2021/08/30 04:01:04;;;;;;;10.63;8.35;;;;;;;13.52;100.00;100688.97;5037693;28;20055;-80
2021/08/30 04:03:37;;;;;;;11.15;8.30;;;;;;;13.58;100.00;100687.69;5027449;28;20160;-78
2021/08/30 04:06:06;;;;;;;10.10;8.77;;;;;;;13.50;100.00;100688.22;5025949;28;20047;-81
2021/08/30 04:08:33;;;;;;;9.55;8.40;;;;;;;13.63;100.00;100694.34;5027131;28;20121;-79
2021/08/30 04:11:01;;;;;;;10.52;9.18;;;;;;;13.56;100.00;100692.25;5005843;28;20140;-79
2021/08/30 04:13:29;;;;;;;12.68;8.75;;;;;;;13.48;100.00;100695.44;5020035;28;20266;-79
2021/08/30 04:15:56;;;;;;;10.18;9.13;;;;;;;13.46;100.00;100694.66;5006303;28;20209;-80
2021/08/30 04:18:24;;;;;;;10.18;9.18;;;;;;;13.47;100.00;100693.75;5049367;28;20053;-84
2021/08/30 04:20:53;;;;;;;12.15;9.70;;;;;;;13.65;100.00;100697.75;5039618;28;20048;-83
2021/08/30 04:23:22;;;;;;;12.88;10.07;;;;;;;13.63;100.00;100696.13;5005534;28;20136;-79
2021/08/30 04:25:50;;;;;;;10.38;9.00;;;;;;;13.63;100.00;100696.97;5002072;28;20046;-79
2021/08/30 04:28:19;;;;;;;11.27;9.55;;;;;;;13.62;100.00;100695.31;5035907;28;22502;-79
2021/08/30 04:30:46;;;;;;;16.08;10.98;;;;;;;13.61;100.00;100696.25;5038922;28;20146;-80
2021/08/30 04:33:19;;;;;;;10.88;9.25;;;;;;;13.69;100.00;100695.72;5033345;28;20140;-82
2021/08/30 04:35:49;;;;;;;11.00;9.38;;;;;;;13.74;100.00;100696.25;5014519;28;20204;-80
2021/08/30 04:38:17;;;;;;;10.60;9.50;;;;;;;13.71;100.00;100696.44;5007575;28;20072;-79
2021/08/30 04:40:45;;;;;;;13.15;10.93;;;;;;;13.66;100.00;100690.66;5049859;28;20049;-80
2021/08/30 04:43:12;;;;;;;11.60;9.88;;;;;;;13.65;100.00;100695.09;5029598;28;20060;-79
2021/08/30 04:45:39;;;;;;;13.00;10.77;;;;;;;13.67;100.00;100690.53;5022209;28;20109;-79
2021/08/30 04:48:11;;;;;;;15.73;12.85;;;;;;;13.65;100.00;100702.19;5048472;28;20099;-78
2021/08/30 04:50:38;;;;;;;18.50;13.05;;;;;;;13.60;100.00;100691.94;5030795;28;20104;-79
2021/08/30 04:53:07;;;;;;;20.95;14.45;;;;;;;13.54;100.00;100697.63;5022606;28;20120;-80
2021/08/30 04:55:35;;;;;;;18.80;14.32;;;;;;;13.76;100.00;100693.47;5054510;28;20057;-79
2021/08/30 04:58:07;;;;;;;22.40;15.55;;;;;;;13.69;100.00;100687.78;5024844;28;20518;-77
2021/08/30 05:00:37;;;;;;;25.23;15.93;;;;;;;13.62;100.00;100695.31;5029977;28;20099;-79
2021/08/30 05:03:07;;;;;;;21.40;15.38;;;;;;;13.59;100.00;100700.78;5045354;28;20135;-82
2021/08/30 05:05:35;;;;;;;21.90;14.63;;;;;;;13.47;100.00;100699.03;5024029;28;20056;-80
2021/08/30 05:08:03;;;;;;;22.90;16.08;;;;;;;13.55;100.00;100699.31;5034570;28;20056;-82
2021/08/30 05:10:31;;;;;;;24.63;16.00;;;;;;;13.55;100.00;100701.97;5032549;28;20591;-81
2021/08/30 05:12:58;;;;;;;22.33;15.95;;;;;;;13.57;100.00;100700.06;5037994;28;20151;-80
2021/08/30 05:15:26;;;;;;;24.67;15.40;;;;;;;13.64;100.00;100701.34;5047515;28;20133;-80
2021/08/30 05:17:55;;;;;;;23.55;16.00;;;;;;;13.66;100.00;100709.16;5023969;28;20091;-80
2021/08/30 05:20:22;;;;;;;21.20;15.40;;;;;;;13.64;100.00;100711.06;5053738;28;20437;-80
2021/08/30 05:22:50;;;;;;;25.83;16.85;;;;;;;13.68;100.00;100701.94;5029020;28;20124;-79
2021/08/30 05:25:17;;;;;;;24.13;16.33;;;;;;;13.77;100.00;100701.28;5048929;28;20477;-80
2021/08/30 05:27:48;;;;;;;25.15;14.63;;;;;;;13.79;100.00;100704.69;5055222;28;20130;-81
2021/08/30 05:30:16;;;;;;;24.33;16.13;;;;;;;13.78;100.00;100705.66;5016648;28;20073;-80
2021/08/30 05:32:45;;;;;;;24.83;16.55;;;;;;;13.75;100.00;100700.56;5012436;28;20080;-79
2021/08/30 05:35:12;;;;;;;26.25;15.95;;;;;;;13.80;100.00;100709.03;5040110;28;20061;-79
2021/08/30 05:37:40;;;;;;;20.67;14.23;;;;;;;13.89;100.00;100702.25;5033775;28;20135;-79
2021/08/30 05:40:08;;;;;;;23.20;14.45;;;;;;;13.81;100.00;100707.22;5033415;28;20053;-79
2021/08/30 05:42:35;;;;;;;22.52;14.90;;;;;;;13.97;100.00;100712.28;5039627;28;20059;-79
2021/08/30 05:45:03;;;;;;;22.55;14.85;;;;;;;13.99;100.00;100716.50;5034768;28;20135;-77
2021/08/30 05:47:31;;;;;;;20.52;14.50;;;;;;;14.02;100.00;100716.28;5035309;28;20879;-80
2021/08/30 05:49:58;;;;;;;20.67;14.23;;;;;;;14.13;100.00;100721.63;5055583;28;20120;-78
2021/08/30 05:52:25;;;;;;;23.02;15.50;;;;;;;14.15;100.00;100722.38;5059612;28;20135;-79
2021/08/30 05:54:53;;;;;;;23.90;15.27;;;;;;;14.22;100.00;100722.78;5003015;28;20127;-77
2021/08/30 05:57:20;;;;;;;22.95;15.00;;;;;;;14.23;100.00;100721.84;5022074;28;20073;-78
2021/08/30 05:59:47;;;;;;;26.25;15.90;;;;;;;14.43;100.00;100717.72;5025540;28;20451;-81
2021/08/30 06:02:14;;;;;;;23.17;15.95;;;;;;;14.41;100.00;100717.00;5059932;28;20060;-79
2021/08/30 06:04:42;;;;;;;20.70;15.00;;;;;;;14.59;100.00;100720.97;5037764;28;20044;-78
2021/08/30 06:07:09;;;;;;;23.65;16.60;;;;;;;14.65;100.00;100714.38;5034326;28;20440;-79
2021/08/30 06:09:36;;;;;;;22.38;16.58;;;;;;;14.67;100.00;100715.94;5021251;28;20056;-79
2021/08/30 06:12:04;;;;;;;26.33;19.17;;;;;;;14.66;100.00;100714.25;5058471;28;20091;-78
2021/08/30 06:14:31;;;;;;;29.92;17.98;;;;;;;14.69;100.00;100721.13;5017106;28;20057;-77
2021/08/30 06:16:59;;;;;;;24.55;18.80;;;;;;;14.71;100.00;100718.34;5004447;28;20456;-78
2021/08/30 06:19:26;;;;;;;34.53;20.08;;;;;;;14.85;100.00;100726.13;5016781;28;20052;-79
2021/08/30 06:21:54;;;;;;;25.80;19.08;;;;;;;14.78;100.00;100719.59;5012322;28;20080;-79
2021/08/30 06:24:21;;;;;;;28.33;18.58;;;;;;;14.84;100.00;100722.63;5031496;28;20072;-77
2021/08/30 06:26:49;;;;;;;26.30;17.88;;;;;;;14.94;100.00;100718.31;5033304;28;20147;-78
2021/08/30 06:29:16;;;;;;;24.13;16.88;;;;;;;15.06;100.00;100718.34;5037735;28;20596;-77
2021/08/30 06:31:43;;;;;;;23.05;18.35;;;;;;;14.98;100.00;100729.53;5021510;28;20041;-80
2021/08/30 06:34:10;;;;;;;23.52;17.27;;;;;;;14.99;100.00;100728.56;5032208;28;20126;-78
2021/08/30 06:36:38;;;;;;;28.80;18.48;;;;;;;15.03;100.00;100727.38;5022820;28;20061;-77
2021/08/30 06:39:05;;;;;;;27.50;18.58;;;;;;;15.01;100.00;100725.81;5040868;28;20155;-80
2021/08/30 06:41:33;;;;;;;21.20;16.73;;;;;;;15.14;100.00;100722.13;5037956;28;20033;-78
2021/08/30 06:44:01;;;;;;;22.60;16.52;;;;;;;15.06;100.00;100718.34;5015392;28;20206;-78
2021/08/30 06:46:29;;;;;;;24.73;16.85;;;;;;;14.96;100.00;100726.16;5017184;28;20061;-78
2021/08/30 06:48:56;;;;;;;23.73;15.88;;;;;;;14.96;100.00;100733.28;5037377;28;20084;-81
2021/08/30 06:51:23;;;;;;;23.35;16.92;;;;;;;14.80;100.00;100725.63;5014248;28;20090;-80
2021/08/30 06:53:51;;;;;;;24.02;16.52;;;;;;;14.82;100.00;100724.56;5037399;28;20055;-84
2021/08/30 06:56:18;;;;;;;24.75;16.80;;;;;;;14.76;100.00;100729.44;5052515;28;20080;-82
2021/08/30 06:58:46;;;;;;;22.05;16.77;;;;;;;14.95;100.00;100724.47;5014660;28;20507;-80
2021/08/30 07:01:13;;;;;;;21.23;15.35;;;;;;;14.80;100.00;100725.63;5013216;28;20148;-82
2021/08/30 07:03:41;;;;;;;23.88;15.57;;;;;;;14.91;100.00;100730.97;5051942;28;20099;-83
2021/08/30 07:06:08;;;;;;;22.20;15.90;;;;;;;14.81;100.00;100725.50;5049167;28;20065;-82
2021/08/30 07:08:36;;;;;;;22.77;14.85;;;;;;;15.09;100.00;100729.56;5035358;28;20149;-79
2021/08/30 07:11:03;;;;;;;21.42;14.20;;;;;;;15.20;100.00;100723.44;5033285;28;20049;-82
2021/08/30 07:13:31;;;;;;;20.80;13.77;;;;;;;15.40;100.00;100722.75;5027376;28;20515;-81
2021/08/30 07:15:59;;;;;;;20.02;12.88;;;;;;;15.55;100.00;100725.19;5016309;28;20527;-81
2021/08/30 07:18:26;;;;;;;14.90;11.70;;;;;;;15.96;100.00;100719.28;5018847;28;20060;-80
2021/08/30 07:20:53;;;;;;;16.67;11.68;;;;;;;15.72;100.00;100718.59;5012604;28;20049;-81
2021/08/30 07:23:24;;;;;;;19.58;12.65;;;;;;;15.92;100.00;100728.47;5034503;28;20159;-85
2021/08/30 07:26:03;;;;;;;15.95;10.55;;;;;;;16.06;100.00;100727.34;5020114;28;20128;-85
2021/08/30 07:28:36;;;;;;;19.30;11.20;;;;;;;16.05;100.00;100723.84;5014313;28;20184;-83
2021/08/30 07:31:04;;;;;;;16.25;11.75;;;;;;;16.31;100.00;100732.38;5016031;28;20318;-81
2021/08/30 07:33:31;;;;;;;16.58;11.50;;;;;;;16.15;100.00;100727.44;5027652;28;20099;-82
2021/08/30 07:35:58;;;;;;;18.25;11.60;;;;;;;16.23;100.00;100740.13;5011130;28;20355;-83
2021/08/30 07:38:28;;;;;;;15.40;11.50;;;;;;;16.38;100.00;100732.72;5055683;28;20136;-80
2021/08/30 07:40:55;;;;;;;16.27;11.88;;;;;;;16.43;100.00;100735.84;5016174;28;20077;-80
2021/08/30 07:43:22;;;;;;;19.20;11.23;;;;;;;16.42;100.00;100742.13;5057643;28;20053;-83
2021/08/30 07:45:49;;;;;;;21.05;12.18;;;;;;;16.35;100.00;100746.25;5029297;28;20194;-80
2021/08/30 07:48:16;;;;;;;18.75;12.20;;;;;;;16.24;100.00;100743.63;5048769;28;20439;-81
2021/08/30 07:50:44;;;;;;;19.00;11.45;;;;;;;16.25;100.00;100747.97;5039693;28;20072;-82
2021/08/30 07:53:11;;;;;;;19.15;11.57;;;;;;;16.29;100.00;100744.94;4997864;28;20080;-80
2021/08/30 07:55:38;;;;;;;20.13;13.18;;;;;;;16.17;100.00;100751.25;5002341;28;20446;-80
2021/08/30 07:58:07;;;;;;;18.95;12.15;;;;;;;16.23;100.00;100753.41;5050045;28;20056;-82
2021/08/30 08:00:35;;;;;;;17.15;11.40;;;;;;;16.36;100.00;100755.91;5043178;28;20061;-82
2021/08/30 08:03:03;;;;;;;18.88;12.07;;;;;;;16.27;100.00;100756.66;5044300;28;20512;-82
2021/08/30 08:05:30;;;;;;;15.18;11.95;;;;;;;16.38;100.00;100756.63;5015405;28;20058;-82
2021/08/30 08:07:58;;;;;;;15.18;10.95;;;;;;;16.33;100.00;100758.81;5018584;28;20045;-82
2021/08/30 08:10:26;;;;;;;17.17;12.68;;;;;;;16.36;100.00;100754.09;5015968;28;20530;-82
2021/08/30 08:12:53;;;;;;;17.50;11.80;;;;;;;16.51;100.00;100748.50;5040377;28;20436;-81
2021/08/30 08:15:21;;;;;;;21.45;12.45;;;;;;;16.66;100.00;100763.19;5011058;28;20080;-83
2021/08/30 08:17:48;;;;;;;15.27;11.10;;;;;;;16.70;100.00;100759.31;5035520;28;20215;-79
2021/08/30 08:20:16;;;;;;;18.80;11.20;;;;;;;16.41;100.00;100759.88;5047226;28;20447;-82
2021/08/30 08:22:43;;;;;;;19.23;10.52;;;;;;;16.54;100.00;100769.53;5020241;28;20103;-81
2021/08/30 08:25:12;;;;;;;14.13;10.25;;;;;;;16.50;100.00;100771.56;5025506;28;20080;-81
2021/08/30 08:27:39;;;;;;;18.15;10.48;;;;;;;16.79;100.00;100774.53;5026614;28;20051;-81
2021/08/30 08:30:07;;;;;;;17.75;10.90;;;;;;;16.79;100.00;100773.69;5014439;28;20109;-81
2021/08/30 08:32:35;;;;;;;14.65;9.98;;;;;;;16.91;100.00;100775.34;5019232;28;20136;-81
2021/08/30 08:35:03;;;;;;;13.27;9.82;;;;;;;16.81;100.00;100780.56;4995647;28;20102;-81
2021/08/30 08:37:30;;;;;;;12.23;9.20;;;;;;;16.49;100.00;100783.19;5029765;28;20102;-82
2021/08/30 08:39:57;;;;;;;11.60;9.00;;;;;;;16.39;100.00;100774.25;5037063;28;20553;-81
2021/08/30 08:42:25;;;;;;;12.32;8.15;;;;;;;16.43;100.00;100773.88;5036206;28;20049;-82
2021/08/30 08:44:52;;;;;;;13.55;8.82;;;;;;;16.58;100.00;100784.25;5054496;28;20057;-82
2021/08/30 08:47:19;;;;;;;12.07;7.28;;;;;;;16.87;100.00;100777.41;5033562;28;20076;-80
2021/08/30 08:49:51;;;;;;;11.23;7.65;;;;;;;17.04;100.00;100777.81;5050523;28;20357;-82
2021/08/30 08:52:22;;;;;;;11.15;7.82;;;;;;;17.23;100.00;100788.59;5057418;28;20091;-80
2021/08/30 08:54:53;;;;;;;10.32;6.85;;;;;;;17.21;99.41;100786.06;5015130;28;20040;-78
2021/08/30 08:57:21;;;;;;;8.45;6.57;;;;;;;16.88;100.00;100781.75;5015372;28;20033;-82
2021/08/30 09:00:15;;;;;;;8.88;6.78;;;;;;;16.22;100.00;100788.06;5045250;28;20547;-82
2021/08/30 09:02:43;;;;;;;11.80;7.35;;;;;;;16.29;100.00;100782.13;5018611;28;20565;-84
2021/08/30 09:05:22;;;;;;;12.60;6.80;;;;;;;16.20;100.00;100780.19;5020970;28;20053;-82
2021/08/30 09:07:49;;;;;;;13.60;7.95;;;;;;;16.32;100.00;100783.69;5039679;28;20076;-81
2021/08/30 09:10:21;;;;;;;9.43;7.82;;;;;;;16.35;100.00;100788.78;5032590;28;20044;-80
2021/08/30 09:12:49;;;;;;;9.98;7.47;;;;;;;16.55;100.00;100784.50;5033282;28;20452;-80
2021/08/30 09:15:20;;;;;;;10.65;6.72;;;;;;;16.50;100.00;100781.38;5019648;28;20053;-81
2021/08/30 09:17:49;;;;;;;11.30;7.65;;;;;;;16.60;100.00;100784.97;5048332;28;20618;-82
2021/08/30 09:20:24;;;;;;;7.97;7.10;;;;;;;16.31;100.00;100776.69;5020538;28;20132;-80
2021/08/30 09:22:52;;;;;;;9.95;6.95;;;;;;;16.44;100.00;100777.41;5041486;28;20036;-81
2021/08/30 09:25:20;;;;;;;9.02;6.78;;;;;;;16.54;100.00;100778.34;5037391;28;20111;-80
2021/08/30 09:27:50;;;;;;;9.77;6.55;;;;;;;16.36;100.00;100779.84;5022040;28;20061;-81
2021/08/30 09:30:24;;;;;;;8.75;7.20;;;;;;;16.16;100.00;100776.09;5031414;28;20045;-81
2021/08/30 09:32:55;;;;;;;8.32;7.20;;;;;;;16.56;100.00;100775.53;5020693;28;20517;-79
2021/08/30 09:35:24;;;;;;;7.95;7.07;;;;;;;16.66;100.00;100777.34;5045231;28;20447;-81
2021/08/30 09:37:51;;;;;;;10.93;6.65;;;;;;;16.81;100.00;100772.59;5028015;28;20491;-80
2021/08/30 09:40:22;;;;;;;8.27;7.10;;;;;;;16.88;100.00;100775.56;5034233;28;20099;-83
2021/08/30 09:42:56;;;;;;;9.73;6.75;;;;;;;16.63;100.00;100771.44;5046955;28;20649;-81
2021/08/30 09:45:26;;;;;;;9.13;6.32;;;;;;;16.96;100.00;100779.28;4995005;28;20300;-78
2021/08/30 09:48:00;;;;;;;11.10;7.03;;;;;;;17.10;100.00;100778.13;5028747;28;20284;-79
2021/08/30 09:50:29;;;;;;;6.68;6.00;;;;;;;16.92;100.00;100771.69;5015626;28;20053;-81
2021/08/30 09:52:58;;;;;;;7.88;6.72;;;;;;;16.63;100.00;100771.44;5022994;28;20169;-79
2021/08/30 09:55:26;;;;;;;6.90;6.18;;;;;;;16.41;100.00;100775.00;5039926;28;20059;-80
2021/08/30 09:57:54;;;;;;;8.20;6.60;;;;;;;16.56;100.00;100773.72;5059421;28;20056;-82
2021/08/30 10:00:21;;;;;;;15.23;7.25;;;;;;;16.69;100.00;100774.41;5024447;28;20121;-80
2021/08/30 10:02:53;;;;;;;8.05;7.05;;;;;;;16.47;100.00;100782.44;5051012;28;20089;-82
2021/08/30 10:05:22;;;;;;;11.38;6.80;;;;;;;16.62;100.00;100765.28;5043163;28;20044;-79
2021/08/30 10:07:53;;;;;;;12.20;8.27;;;;;;;16.70;100.00;100775.25;5036552;28;20076;-81
2021/08/30 10:10:23;;;;;;;8.57;7.78;;;;;;;16.81;100.00;100774.41;5010950;28;20102;-80
2021/08/30 10:12:50;;;;;;;9.88;7.03;;;;;;;16.86;100.00;100772.22;5038390;28;20599;-79
2021/08/30 10:15:21;;;;;;;9.48;7.05;;;;;;;17.01;100.00;100770.94;5021067;28;20464;-81
2021/08/30 10:17:48;;;;;;;6.88;5.78;;;;;;;17.13;100.00;100769.91;5025154;28;20095;-81
2021/08/30 10:20:23;;;;;;;8.73;7.05;;;;;;;17.36;100.00;100772.44;5036082;28;20183;-79
2021/08/30 10:23:05;;;;;;;8.23;7.30;;;;;;;17.34;100.00;100766.41;5018339;28;20135;-81
2021/08/30 10:25:35;;;;;;;15.55;7.45;;;;;;;17.02;100.00;100782.41;5029586;28;20137;-89
2021/08/30 10:28:04;;;;;;;6.53;5.93;;;;;;;16.69;100.00;100777.06;5023541;28;20143;-85
2021/08/30 10:30:33;;;;;;;11.73;6.60;;;;;;;16.84;100.00;100769.69;5027316;28;20496;-81
2021/08/30 10:33:04;;;;;;;9.85;6.65;;;;;;;17.04;100.00;100769.84;5041558;28;20118;-85
2021/08/30 10:35:35;;;;;;;8.20;6.65;;;;;;;17.06;100.00;100771.38;5023001;28;20478;-81
2021/08/30 10:38:08;;;;;;;9.35;7.78;;;;;;;17.14;100.00;100773.41;5018195;28;20091;-83
2021/08/30 10:40:37;;;;;;;9.50;8.07;;;;;;;17.36;100.00;100772.44;5035756;28;20147;-80
2021/08/30 10:43:15;;;;;;;9.55;8.10;;;;;;;17.49;100.00;100770.41;5021528;28;20064;-82
2021/08/30 10:45:45;;;;;;;12.10;8.60;;;;;;;17.52;100.00;100774.66;5016834;28;20480;-88
2021/08/30 10:48:15;;;;;;;7.68;6.88;;;;;;;17.46;100.00;100771.50;5037943;28;20114;-84
2021/08/30 10:50:45;;;;;;;8.90;6.35;;;;;;;17.57;100.00;100764.44;5029094;28;20107;-81
2021/08/30 10:53:18;;;;;;;10.75;7.00;;;;;;;17.73;100.00;100767.47;5032815;28;20052;-82
2021/08/30 10:55:48;;;;;;;7.65;6.05;;;;;;;17.83;100.00;100764.88;5051563;28;20110;-83
2021/08/30 10:58:22;;;;;;;7.70;6.30;;;;;;;17.66;100.00;100764.50;5060513;28;20178;-83
2021/08/30 11:00:50;;;;;;;7.00;5.93;;;;;;;17.68;100.00;100767.84;5018814;28;20321;-82
2021/08/30 11:03:52;;;;;;;6.93;5.53;;;;;;;17.53;100.00;100771.84;5043323;28;20106;-82
2021/08/30 11:06:21;;;;;;;6.97;5.82;;;;;;;17.74;100.00;100771.00;5039012;28;20045;-80
2021/08/30 11:08:48;;;;;;;10.98;6.68;;;;;;;18.26;100.00;100769.09;5014607;28;20048;-80
2021/08/30 11:11:21;;;;;;;12.00;7.20;;;;;;;18.70;100.00;100762.47;5033812;28;20049;-82
2021/08/30 11:14:01;;;;;;;7.68;6.57;;;;;;;18.74;100.00;100765.69;5036825;28;20132;-80
2021/08/30 11:16:31;;;;;;;7.88;6.57;;;;;;;19.10;100.00;100766.81;5038650;28;20048;-83
2021/08/30 11:19:16;;;;;;;7.82;7.03;;;;;;;18.66;100.00;100769.88;5029069;28;20222;-82
2021/08/30 11:21:53;;;;;;;7.05;6.35;;;;;;;17.61;100.00;100769.38;5034974;28;20075;-81